Cosco Aden — VRKF9 — position and weather

sailwx.info

Track history (hours):
 
Tides and Currents Weather Stations Pressure Air Temp Water Temp Dewpoint Dewpoint Depression Visibility Wind Speed Wind Dir Waves Ship Positions

Cosco Aden

Last reported at 2017-Apr-15 20:42 UTC. Time now 2017-Apr-27 14:54 UTC.
Position N 23°48' E 118°08'.
Warning: this ship's position is 11 days out of date.

Length 261 m; draft 11.1 m.

Type: Ship (hazmat cat C). MMSI: 477765900.

Date/timePositionNaut miles runAvg speedWind from/ knotsBaromVisibWave heightAir tempDewpointWater temp
2017-Apr-15 20:42N 23°48' E 118°08'1316.8
2017-Apr-15 19:55N 23°55' E 118°20'3516.4
2017-Apr-15 17:47N 24°18' E 118°49'  
2017-Apr-13 11:05N 30°03' E 122°45'510.2
2017-Apr-13 10:36N 30°07' E 122°48'710.9
2017-Apr-13 09:58N 30°14' E 122°50'510.5
2017-Apr-13 09:29N 30°19' E 122°51'25 9.9
2017-Apr-13 07:00N 30°43' E 122°58'711.7
2017-Apr-13 06:24N 30°50' E 122°59'615.9
2017-Apr-13 06:00N 30°56' E 122°60'815.6
2017-Apr-13 05:30N 31°04' E 123°01'815.3
2017-Apr-13 05:00N 31°11' E 122°57'815.1
2017-Apr-13 04:30N 31°18' E 122°57'715.0
2017-Apr-13 04:00N 31°26' E 122°57'714.4
2017-Apr-13 03:30N 31°33' E 122°57'714.6
2017-Apr-13 03:00N 31°40' E 122°58'714.6
2017-Apr-13 02:30N 31°47' E 122°58'815.0
2017-Apr-13 02:00N 31°55' E 122°57'918.9
2017-Apr-13 01:30N 32°04' E 122°55'1019.6
2017-Apr-13 01:00N 32°14' E 122°55'917.9
2017-Apr-13 00:30N 32°23' E 122°55'917.2
2017-Apr-12 23:59N 32°32' E 122°54'817.4
2017-Apr-12 23:30N 32°40' E 122°54'  
2017-Apr-07 20:44N 38°43' E 119°54'5 6.6
2017-Apr-07 19:54N 38°43' E 120°02'6 6.7
2017-Apr-07 18:57N 38°42' E 120°10'3 7.0
2017-Apr-07 18:30N 38°42' E 120°13'4 7.1
2017-Apr-07 18:00N 38°41' E 120°18'4 7.3
2017-Apr-07 17:30N 38°41' E 120°23'4 7.5
2017-Apr-07 17:01N 38°40' E 120°27'5 7.7
2017-Apr-07 16:18N 38°40' E 120°34'19 8.2
2017-Apr-07 14:00N 38°35' E 120°58'5 9.6
2017-Apr-07 13:29N 38°32' E 121°03'5 9.4
2017-Apr-07 13:00N 38°30' E 121°08'7 9.2
2017-Apr-07 12:16N 38°27' E 121°16'3 8.8
2017-Apr-07 11:58N 38°26' E 121°19'7 8.7
2017-Apr-07 11:11N 38°22' E 121°26'4 8.5
2017-Apr-07 10:43N 38°20' E 121°30'2 8.5
2017-Apr-07 10:29N 38°19' E 121°32'10 8.2
2017-Apr-07 09:14N 38°13' E 121°43'3 8.0
2017-Apr-07 08:55N 38°12' E 121°46'3 7.9
2017-Apr-07 08:29N 38°10' E 121°50'4 7.9
2017-Apr-07 08:00N 38°08' E 121°54'7 7.9
2017-Apr-07 07:08N 38°05' E 122°01'2 8.0
2017-Apr-07 06:51N 38°03' E 122°04'3 7.9
2017-Apr-07 06:30N 38°02' E 122°06'4 8.2
2017-Apr-07 06:00N 37°60' E 122°11'4 8.7
2017-Apr-07 05:30N 37°57' E 122°15'13 8.5
2017-Apr-07 03:58N 37°50' E 122°29'4 8.1
2017-Apr-07 03:30N 37°48' E 122°33'6 7.9
2017-Apr-07 02:48N 37°44' E 122°38'5 7.8
2017-Apr-07 02:12N 37°40' E 122°42'2 7.7
2017-Apr-07 01:57N 37°39' E 122°43'6 7.4
2017-Apr-07 01:10N 37°34' E 122°46'3 7.3
2017-Apr-07 00:47N 37°31' E 122°48'3 7.4
2017-Apr-07 00:20N 37°28' E 122°50'  
Track history (hours):
 
Tides and Currents Weather Stations Pressure Air Temp Water Temp Dewpoint Dewpoint Depression Visibility Wind Speed Wind Dir Waves Ship Positions

Cosco Aden

Last reported at 2017-Apr-15 20:42 UTC. Time now 2017-Apr-27 14:54 UTC.
Position N 23°48' E 118°08'.
Warning: this ship's position is 11 days out of date.

Length 261 m; draft 11.1 m.

Type: Ship (hazmat cat C). MMSI: 477765900.

Date/timePositionNaut miles runAvg speedWind from/ knotsBaromVisibWave heightAir tempDewpointWater temp
2017-Apr-15 20:42N 23°48' E 118°08'1316.8
2017-Apr-15 19:55N 23°55' E 118°20'3516.4
2017-Apr-15 17:47N 24°18' E 118°49'  
2017-Apr-13 11:05N 30°03' E 122°45'510.2
2017-Apr-13 10:36N 30°07' E 122°48'710.9
2017-Apr-13 09:58N 30°14' E 122°50'510.5
2017-Apr-13 09:29N 30°19' E 122°51'25 9.9
2017-Apr-13 07:00N 30°43' E 122°58'711.7
2017-Apr-13 06:24N 30°50' E 122°59'615.9
2017-Apr-13 06:00N 30°56' E 122°60'815.6
2017-Apr-13 05:30N 31°04' E 123°01'815.3
2017-Apr-13 05:00N 31°11' E 122°57'815.1
2017-Apr-13 04:30N 31°18' E 122°57'715.0
2017-Apr-13 04:00N 31°26' E 122°57'714.4
2017-Apr-13 03:30N 31°33' E 122°57'714.6
2017-Apr-13 03:00N 31°40' E 122°58'714.6
2017-Apr-13 02:30N 31°47' E 122°58'815.0
2017-Apr-13 02:00N 31°55' E 122°57'918.9
2017-Apr-13 01:30N 32°04' E 122°55'1019.6
2017-Apr-13 01:00N 32°14' E 122°55'917.9
2017-Apr-13 00:30N 32°23' E 122°55'917.2
2017-Apr-12 23:59N 32°32' E 122°54'817.4
2017-Apr-12 23:30N 32°40' E 122°54'  
2017-Apr-07 20:44N 38°43' E 119°54'5 6.6
2017-Apr-07 19:54N 38°43' E 120°02'6 6.7
2017-Apr-07 18:57N 38°42' E 120°10'3 7.0
2017-Apr-07 18:30N 38°42' E 120°13'4 7.1
2017-Apr-07 18:00N 38°41' E 120°18'4 7.3
2017-Apr-07 17:30N 38°41' E 120°23'4 7.5
2017-Apr-07 17:01N 38°40' E 120°27'5 7.7
2017-Apr-07 16:18N 38°40' E 120°34'19 8.2
2017-Apr-07 14:00N 38°35' E 120°58'5 9.6
2017-Apr-07 13:29N 38°32' E 121°03'5 9.4
2017-Apr-07 13:00N 38°30' E 121°08'7 9.2
2017-Apr-07 12:16N 38°27' E 121°16'3 8.8
2017-Apr-07 11:58N 38°26' E 121°19'7 8.7
2017-Apr-07 11:11N 38°22' E 121°26'4 8.5
2017-Apr-07 10:43N 38°20' E 121°30'2 8.5
2017-Apr-07 10:29N 38°19' E 121°32'10 8.2
2017-Apr-07 09:14N 38°13' E 121°43'3 8.0
2017-Apr-07 08:55N 38°12' E 121°46'3 7.9
2017-Apr-07 08:29N 38°10' E 121°50'4 7.9
2017-Apr-07 08:00N 38°08' E 121°54'7 7.9
2017-Apr-07 07:08N 38°05' E 122°01'2 8.0
2017-Apr-07 06:51N 38°03' E 122°04'3 7.9
2017-Apr-07 06:30N 38°02' E 122°06'4 8.2
2017-Apr-07 06:00N 37°60' E 122°11'4 8.7
2017-Apr-07 05:30N 37°57' E 122°15'13 8.5
2017-Apr-07 03:58N 37°50' E 122°29'4 8.1
2017-Apr-07 03:30N 37°48' E 122°33'6 7.9
2017-Apr-07 02:48N 37°44' E 122°38'5 7.8
2017-Apr-07 02:12N 37°40' E 122°42'2 7.7
2017-Apr-07 01:57N 37°39' E 122°43'6 7.4
2017-Apr-07 01:10N 37°34' E 122°46'3 7.3
2017-Apr-07 00:47N 37°31' E 122°48'3 7.4
2017-Apr-07 00:20N 37°28' E 122°50'  

Dump ship's entire track history